createdAt,value
2022-10-22T00:01:05.311Z,21.37
2022-10-22T00:03:32.425Z,23.88
2022-10-22T00:05:59.341Z,18.58
2022-10-22T00:08:26.095Z,20.90
2022-10-22T00:10:53.085Z,20.47
2022-10-22T00:13:20.612Z,27.33
2022-10-22T00:15:47.359Z,19.93
2022-10-22T00:18:14.330Z,19.07
2022-10-22T00:20:41.313Z,17.80
2022-10-22T00:23:08.041Z,15.50
2022-10-22T00:25:36.134Z,15.13
2022-10-22T00:28:03.817Z,16.63
2022-10-22T00:30:30.633Z,17.60
2022-10-22T00:32:57.348Z,16.53
2022-10-22T00:35:24.039Z,15.90
2022-10-22T00:37:50.802Z,14.97
2022-10-22T00:40:17.656Z,16.10
2022-10-22T00:42:44.873Z,15.27
2022-10-22T00:45:11.460Z,15.27
2022-10-22T00:47:42.647Z,14.53
2022-10-22T00:50:17.903Z,17.27
2022-10-22T00:52:44.830Z,13.87
2022-10-22T00:55:13.447Z,15.13
2022-10-22T00:57:41.136Z,18.48
2022-10-22T01:00:08.553Z,14.13
2022-10-22T01:02:35.850Z,15.97
2022-10-22T01:05:02.822Z,15.07
2022-10-22T01:07:29.471Z,14.32
2022-10-22T01:10:26.776Z,15.93
2022-10-22T01:13:10.440Z,13.90
2022-10-22T01:15:56.822Z,12.03
2022-10-22T01:18:27.295Z,14.63
2022-10-22T01:21:05.910Z,15.83
2022-10-22T01:23:35.514Z,15.43
2022-10-22T01:26:31.356Z,16.70
2022-10-22T01:28:57.926Z,14.20
2022-10-22T01:31:28.465Z,15.37
2022-10-22T01:33:55.443Z,16.47
2022-10-22T01:36:22.335Z,17.43
2022-10-22T01:38:50.560Z,19.20
2022-10-22T01:41:17.322Z,18.00
2022-10-22T01:43:44.054Z,13.83
2022-10-22T01:46:12.935Z,11.53
2022-10-22T01:48:51.663Z,16.20
2022-10-22T01:51:27.719Z,36.17
2022-10-22T01:54:00.706Z,23.30
2022-10-22T01:56:30.336Z,25.77
2022-10-22T01:59:18.801Z,31.63
2022-10-22T02:02:13.453Z,43.20
2022-10-22T02:04:58.295Z,33.60
2022-10-22T02:07:37.426Z,22.17
2022-10-22T02:10:07.599Z,19.40
2022-10-22T02:12:35.540Z,18.43
2022-10-22T02:15:03.819Z,17.70
2022-10-22T02:17:33.366Z,19.63
2022-10-22T02:20:12.969Z,56.93
2022-10-22T02:22:40.309Z,16.77
2022-10-22T02:25:08.130Z,14.87
2022-10-22T02:28:12.642Z,12.97
2022-10-22T02:30:42.674Z,27.70
2022-10-22T02:33:16.434Z,45.73
2022-10-22T02:35:43.802Z,31.50
2022-10-22T02:38:11.674Z,29.40
2022-10-22T02:40:38.533Z,27.63
2022-10-22T02:43:06.298Z,28.23
2022-10-22T02:45:34.670Z,26.40
2022-10-22T02:48:01.315Z,28.27
2022-10-22T02:50:27.974Z,30.67
2022-10-22T02:52:54.554Z,25.57
2022-10-22T02:55:21.734Z,18.30
2022-10-22T02:57:48.380Z,15.83
2022-10-22T03:00:15.396Z,41.13
2022-10-22T03:02:42.166Z,32.60
2022-10-22T03:05:09.317Z,40.53
2022-10-22T03:07:36.062Z,29.50
2022-10-22T03:10:03.187Z,30.27
2022-10-22T03:12:29.850Z,36.50
2022-10-22T03:14:56.478Z,24.37
2022-10-22T03:17:23.461Z,63.47
2022-10-22T03:19:50.128Z,60.53
2022-10-22T03:22:23.635Z,85.07
2022-10-22T03:24:54.382Z,118.10
2022-10-22T03:27:23.363Z,35.20
2022-10-22T03:29:52.611Z,19.70
2022-10-22T03:32:19.446Z,14.83
2022-10-22T03:34:46.123Z,16.00
2022-10-22T03:37:12.962Z,17.27
2022-10-22T03:39:40.262Z,26.13
2022-10-22T03:42:08.120Z,32.80
2022-10-22T03:44:37.302Z,28.20
2022-10-22T03:47:04.525Z,25.43
2022-10-22T03:49:31.289Z,23.73
2022-10-22T03:52:14.001Z,17.97
2022-10-22T03:54:42.188Z,32.27
2022-10-22T03:57:10.365Z,19.27
2022-10-22T03:59:42.605Z,27.13
2022-10-22T04:02:10.846Z,54.50
2022-10-22T04:04:38.202Z,58.17
2022-10-22T04:07:06.723Z,22.70
2022-10-22T04:09:34.475Z,15.23
2022-10-22T04:12:01.461Z,13.83
2022-10-22T04:14:28.178Z,17.67
2022-10-22T04:16:54.865Z,23.20
2022-10-22T04:19:21.602Z,20.00
2022-10-22T04:21:48.242Z,18.07
2022-10-22T04:24:15.004Z,25.27
2022-10-22T04:26:41.768Z,23.00
2022-10-22T04:29:11.911Z,20.63
2022-10-22T04:31:41.867Z,19.83
2022-10-22T04:34:08.661Z,20.63
2022-10-22T04:36:35.347Z,20.97
2022-10-22T04:39:02.694Z,21.73
2022-10-22T04:41:32.628Z,20.60
2022-10-22T04:44:00.225Z,45.27
2022-10-22T04:46:29.838Z,28.43
2022-10-22T04:48:56.521Z,21.73
2022-10-22T04:51:25.468Z,19.53
2022-10-22T04:53:52.302Z,20.93
2022-10-22T04:56:24.989Z,57.37
2022-10-22T04:58:54.644Z,114.23
2022-10-22T05:01:24.090Z,171.20
2022-10-22T05:03:53.115Z,58.20
2022-10-22T05:06:27.349Z,42.40
2022-10-22T05:08:56.312Z,25.23
2022-10-22T05:11:28.675Z,20.10
2022-10-22T05:13:57.199Z,18.87
2022-10-22T05:16:24.723Z,32.30
2022-10-22T05:18:51.399Z,42.97
2022-10-22T05:21:20.549Z,32.20
2022-10-22T05:23:48.993Z,24.03
2022-10-22T05:26:19.085Z,19.27
2022-10-22T05:28:47.014Z,24.17
2022-10-22T05:31:14.437Z,24.10
2022-10-22T05:33:42.237Z,23.73
2022-10-22T05:36:12.603Z,25.00
2022-10-22T05:38:39.502Z,21.80
2022-10-22T05:41:15.375Z,26.27
2022-10-22T05:43:42.626Z,24.77
2022-10-22T05:46:18.766Z,31.53
2022-10-22T05:48:56.938Z,35.00
2022-10-22T05:51:24.752Z,46.60
2022-10-22T05:53:56.828Z,33.30
2022-10-22T05:56:24.497Z,30.00
2022-10-22T05:58:51.692Z,33.63
2022-10-22T06:01:24.302Z,41.75
2022-10-22T06:03:54.710Z,39.13
2022-10-22T06:06:34.300Z,41.22
2022-10-22T06:09:04.198Z,25.10
2022-10-22T06:11:34.263Z,19.67
2022-10-22T06:14:02.528Z,18.42
2022-10-22T06:16:30.102Z,20.15
2022-10-22T06:19:00.078Z,18.63
2022-10-22T06:21:26.749Z,20.80
2022-10-22T06:23:59.491Z,25.70
2022-10-22T06:26:26.529Z,32.20
2022-10-22T06:28:53.315Z,28.20
2022-10-22T06:31:20.105Z,27.10
2022-10-22T06:33:46.784Z,29.70
2022-10-22T06:36:16.634Z,25.55
2022-10-22T06:38:43.438Z,20.60
2022-10-22T06:41:13.412Z,21.38
2022-10-22T06:43:41.235Z,20.83
2022-10-22T06:46:09.938Z,21.60
2022-10-22T06:48:38.086Z,14.05
2022-10-22T06:51:11.128Z,17.10
2022-10-22T06:53:39.206Z,18.20
2022-10-22T06:56:11.281Z,19.90
2022-10-22T06:58:38.455Z,19.23
2022-10-22T07:01:13.474Z,18.75
2022-10-22T07:03:41.393Z,17.42
2022-10-22T07:06:10.934Z,16.75
2022-10-22T07:08:38.964Z,14.75
2022-10-22T07:11:17.346Z,15.23
2022-10-22T07:13:45.410Z,15.48
2022-10-22T07:16:12.735Z,14.10
2022-10-22T07:18:40.568Z,13.93
2022-10-22T07:21:08.868Z,18.20
2022-10-22T07:23:35.981Z,19.70
2022-10-22T07:26:03.582Z,17.60
2022-10-22T07:28:30.888Z,16.88
2022-10-22T07:30:57.579Z,19.52
2022-10-22T07:33:24.243Z,16.50
2022-10-22T07:35:50.928Z,11.23
2022-10-22T07:38:17.638Z,9.98
2022-10-22T07:40:44.345Z,12.25
2022-10-22T07:43:11.026Z,8.00
2022-10-22T07:45:37.723Z,9.30
2022-10-22T07:48:04.727Z,8.35
2022-10-22T07:50:31.398Z,10.35
2022-10-22T07:52:58.467Z,9.80
2022-10-22T07:55:25.862Z,10.40
2022-10-22T07:57:52.787Z,10.18
2022-10-22T08:00:23.038Z,12.98
2022-10-22T08:02:52.363Z,13.98
2022-10-22T08:05:19.486Z,13.43
2022-10-22T08:07:46.401Z,15.25
2022-10-22T08:10:13.723Z,14.38
2022-10-22T08:12:41.660Z,14.82
2022-10-22T08:15:09.955Z,14.15
2022-10-22T08:17:36.869Z,11.93
2022-10-22T08:20:04.430Z,11.63
2022-10-22T08:22:31.587Z,8.13
2022-10-22T08:24:59.164Z,8.63
2022-10-22T08:27:26.125Z,8.88
2022-10-22T08:29:52.772Z,10.35
2022-10-22T08:32:19.627Z,8.32
2022-10-22T08:34:46.292Z,19.85
2022-10-22T08:37:14.544Z,6.30
2022-10-22T08:39:41.689Z,10.50
2022-10-22T08:42:27.251Z,7.40
2022-10-22T08:45:09.135Z,7.75
2022-10-22T08:47:59.806Z,6.75
2022-10-22T08:51:02.041Z,6.63
2022-10-22T08:53:38.782Z,6.10
2022-10-22T08:56:05.675Z,5.80
2022-10-22T08:59:07.722Z,7.90
2022-10-22T09:01:40.187Z,11.27
2022-10-22T09:04:17.327Z,6.82
2022-10-22T09:06:44.520Z,8.63
2022-10-22T09:09:18.772Z,6.70
2022-10-22T09:11:48.922Z,7.30
2022-10-22T09:14:22.425Z,7.72
2022-10-22T09:17:20.972Z,6.50
2022-10-22T09:19:54.402Z,5.50
2022-10-22T09:23:09.351Z,5.03
2022-10-22T09:25:37.115Z,4.68
2022-10-22T09:28:04.613Z,4.90
2022-10-22T09:30:35.502Z,3.92
2022-10-22T09:33:12.583Z,5.30
2022-10-22T09:35:53.271Z,4.93
2022-10-22T09:38:28.390Z,4.80
2022-10-22T09:40:57.336Z,5.25
2022-10-22T09:43:24.403Z,4.05
2022-10-22T09:46:18.709Z,4.10
2022-10-22T09:48:51.994Z,4.60
2022-10-22T09:51:24.392Z,4.88
2022-10-22T09:54:00.142Z,6.80
2022-10-22T09:56:32.574Z,5.60
2022-10-22T09:58:59.298Z,6.78
2022-10-22T10:01:32.895Z,4.35
2022-10-22T10:04:11.551Z,5.45
2022-10-22T10:06:41.179Z,5.85
2022-10-22T10:09:19.559Z,5.25
2022-10-22T10:11:51.689Z,3.22
2022-10-22T10:14:29.067Z,5.03
2022-10-22T10:17:08.940Z,4.25
2022-10-22T10:19:48.132Z,5.32
2022-10-22T10:22:42.247Z,4.18
2022-10-22T10:25:14.916Z,4.57
2022-10-22T10:27:47.759Z,4.75
2022-10-22T10:30:18.841Z,3.97
2022-10-22T10:32:57.642Z,4.20
2022-10-22T10:35:28.557Z,3.65
2022-10-22T10:38:16.602Z,4.03
2022-10-22T10:41:09.326Z,3.15
2022-10-22T10:43:45.457Z,5.10
2022-10-22T10:46:20.627Z,3.85
2022-10-22T10:48:53.778Z,4.03
2022-10-22T10:51:23.222Z,4.22
2022-10-22T10:54:27.667Z,3.88
2022-10-22T10:57:17.958Z,4.15
2022-10-22T11:00:06.139Z,4.30
2022-10-22T11:02:48.058Z,5.22
2022-10-22T11:05:48.843Z,5.03
2022-10-22T11:08:30.078Z,4.22
2022-10-22T11:11:06.582Z,4.22
2022-10-22T11:14:00.466Z,4.60
2022-10-22T11:16:37.103Z,4.03
2022-10-22T11:19:22.634Z,4.70
2022-10-22T11:22:16.348Z,5.35
2022-10-22T11:25:04.029Z,3.10
2022-10-22T11:27:39.373Z,3.22
2022-10-22T11:30:20.707Z,3.22
2022-10-22T11:32:57.591Z,4.25
2022-10-22T11:35:27.478Z,4.00
2022-10-22T11:37:57.167Z,3.75
2022-10-22T11:40:29.901Z,5.60
2022-10-22T11:43:08.569Z,3.55
2022-10-22T11:45:38.038Z,4.28
2022-10-22T11:48:10.771Z,3.90
2022-10-22T11:50:50.950Z,4.47
2022-10-22T11:53:39.261Z,4.32
2022-10-22T11:56:13.153Z,4.45
2022-10-22T11:58:52.146Z,4.82
2022-10-22T12:01:39.819Z,4.97
2022-10-22T12:04:17.671Z,4.20
2022-10-22T12:07:30.438Z,5.57
2022-10-22T12:09:58.520Z,4.72
2022-10-22T12:12:25.200Z,6.80
2022-10-22T12:14:59.436Z,5.35
2022-10-22T12:17:28.701Z,5.00
2022-10-22T12:20:14.387Z,3.88
2022-10-22T12:22:42.240Z,6.15
2022-10-22T12:25:23.090Z,5.03
2022-10-22T12:27:55.614Z,6.00
2022-10-22T12:30:28.130Z,7.53
2022-10-22T12:32:57.411Z,7.63
2022-10-22T12:35:28.180Z,5.55
2022-10-22T12:37:57.455Z,6.10
2022-10-22T12:40:29.791Z,6.80
2022-10-22T12:43:11.620Z,6.20
2022-10-22T12:45:39.475Z,5.75
2022-10-22T12:48:14.609Z,5.57
2022-10-22T12:50:44.491Z,10.73
2022-10-22T12:53:26.390Z,29.40
2022-10-22T12:55:55.541Z,9.27
2022-10-22T12:58:34.145Z,11.27
2022-10-22T13:01:02.292Z,7.82
2022-10-22T13:04:03.628Z,19.35
2022-10-22T13:06:33.750Z,14.48
2022-10-22T13:09:00.621Z,8.32
2022-10-22T13:11:58.358Z,19.60
2022-10-22T13:14:24.994Z,10.85
2022-10-22T13:17:36.839Z,8.40
2022-10-22T13:20:22.586Z,9.60
2022-10-22T13:23:05.849Z,7.43
2022-10-22T13:25:35.132Z,7.35
2022-10-22T13:28:16.801Z,7.32
2022-10-22T13:30:54.293Z,6.78
2022-10-22T13:33:29.467Z,7.85
2022-10-22T13:35:57.039Z,9.45
2022-10-22T13:38:26.190Z,7.53
2022-10-22T13:40:53.239Z,7.70
2022-10-22T13:43:20.337Z,7.60
2022-10-22T13:45:48.862Z,7.57
2022-10-22T13:48:19.211Z,7.75
2022-10-22T13:50:55.652Z,7.97
2022-10-22T13:53:25.393Z,8.30
2022-10-22T13:55:52.109Z,7.43
2022-10-22T13:58:21.741Z,8.27
2022-10-22T14:00:55.810Z,8.70
2022-10-22T14:03:26.350Z,8.88
2022-10-22T14:05:53.062Z,9.40
2022-10-22T14:08:23.423Z,14.38
2022-10-22T14:10:50.201Z,11.68
2022-10-22T14:13:18.346Z,10.95
2022-10-22T14:15:48.051Z,10.32
2022-10-22T14:18:27.487Z,9.75
2022-10-22T14:20:57.468Z,8.88
2022-10-22T14:23:29.524Z,7.10
2022-10-22T14:25:57.769Z,8.55
2022-10-22T14:28:24.497Z,8.32
2022-10-22T14:30:52.366Z,8.70
2022-10-22T14:33:28.958Z,15.13
2022-10-22T14:36:02.077Z,12.43
2022-10-22T14:38:29.406Z,15.73
2022-10-22T14:40:56.751Z,14.63
2022-10-22T14:43:27.088Z,18.00
2022-10-22T14:45:54.452Z,14.85
2022-10-22T14:48:21.244Z,14.75
2022-10-22T14:50:49.182Z,15.50
2022-10-22T14:53:16.893Z,16.75
2022-10-22T14:55:47.243Z,15.10
2022-10-22T14:58:14.625Z,19.88
2022-10-22T15:00:42.733Z,23.65
2022-10-22T15:03:10.376Z,22.73
2022-10-22T15:05:44.328Z,25.20
2022-10-22T15:08:12.885Z,30.05
2022-10-22T15:10:40.252Z,34.42
2022-10-22T15:13:07.178Z,35.10
2022-10-22T15:15:36.636Z,31.17
2022-10-22T15:18:06.082Z,32.95
2022-10-22T15:20:32.890Z,38.25
2022-10-22T15:22:59.611Z,27.95
2022-10-22T15:25:26.378Z,39.50
2022-10-22T15:27:54.928Z,32.42
2022-10-22T15:30:26.351Z,34.38
2022-10-22T15:32:53.075Z,34.95
2022-10-22T15:35:19.722Z,32.20
2022-10-22T15:37:46.411Z,37.92
2022-10-22T15:40:13.036Z,43.03
2022-10-22T15:42:40.039Z,41.60
2022-10-22T15:45:07.460Z,54.72
2022-10-22T15:47:34.176Z,57.25
2022-10-22T15:50:01.015Z,27.05
2022-10-22T15:52:28.486Z,29.80
2022-10-22T15:54:55.548Z,47.67
2022-10-22T15:57:22.377Z,38.70
2022-10-22T15:59:50.190Z,38.70
2022-10-22T16:02:16.925Z,36.72
2022-10-22T16:04:43.695Z,36.15
2022-10-22T16:07:10.451Z,52.80
2022-10-22T16:09:37.186Z,45.80
2022-10-22T16:12:04.017Z,42.70
2022-10-22T16:14:30.702Z,40.88
2022-10-22T16:16:57.625Z,36.40
2022-10-22T16:19:24.777Z,37.50
2022-10-22T16:21:53.338Z,35.78
2022-10-22T16:24:21.118Z,46.85
2022-10-22T16:26:48.199Z,69.93
2022-10-22T16:29:15.087Z,56.30
2022-10-22T16:31:43.698Z,46.92
2022-10-22T16:34:10.651Z,39.45
2022-10-22T16:36:38.403Z,38.63
2022-10-22T16:39:06.051Z,32.53
2022-10-22T16:41:36.469Z,37.03
2022-10-22T16:44:06.710Z,33.95
2022-10-22T16:46:34.899Z,35.80
2022-10-22T16:49:01.619Z,40.83
2022-10-22T16:51:28.957Z,42.72
2022-10-22T16:53:57.531Z,48.05
2022-10-22T16:56:25.697Z,65.10
2022-10-22T16:58:55.366Z,68.18
2022-10-22T17:01:26.247Z,67.68
2022-10-22T17:03:54.853Z,70.57
2022-10-22T17:06:23.615Z,44.20
2022-10-22T17:08:50.429Z,42.17
2022-10-22T17:11:21.235Z,37.28
2022-10-22T17:13:51.305Z,47.58
2022-10-22T17:16:20.028Z,37.50
2022-10-22T17:18:47.148Z,135.05
2022-10-22T17:21:15.372Z,86.28
2022-10-22T17:23:42.821Z,75.95
2022-10-22T17:26:16.170Z,75.47
2022-10-22T17:28:43.478Z,60.38
2022-10-22T17:31:18.036Z,94.30
2022-10-22T17:33:45.619Z,58.22
2022-10-22T17:36:13.760Z,51.00
2022-10-22T17:38:42.162Z,50.58
2022-10-22T17:41:14.565Z,61.50
2022-10-22T17:43:41.585Z,70.88
2022-10-22T17:46:14.608Z,76.10
2022-10-22T17:48:41.217Z,78.47
2022-10-22T17:51:09.142Z,62.25
2022-10-22T17:53:36.201Z,58.95
2022-10-22T17:56:06.989Z,66.88
2022-10-22T17:58:33.705Z,73.00
2022-10-22T18:01:00.412Z,63.47
2022-10-22T18:03:28.014Z,74.60
2022-10-22T18:05:55.314Z,47.50
2022-10-22T18:08:24.180Z,39.63
2022-10-22T18:10:50.871Z,47.28
2022-10-22T18:13:17.633Z,41.65
2022-10-22T18:15:44.256Z,54.42
2022-10-22T18:18:11.147Z,50.85
2022-10-22T18:20:37.846Z,48.45
2022-10-22T18:23:04.733Z,48.20
2022-10-22T18:25:31.893Z,59.17
2022-10-22T18:27:58.627Z,52.95
2022-10-22T18:30:25.363Z,57.60
2022-10-22T18:32:52.083Z,64.53
2022-10-22T18:35:18.784Z,71.45
2022-10-22T18:37:45.488Z,75.72
2022-10-22T18:40:14.705Z,65.10
2022-10-22T18:42:42.173Z,52.80
2022-10-22T18:45:10.607Z,51.97
2022-10-22T18:47:40.554Z,45.28
2022-10-22T18:50:08.261Z,49.28
2022-10-22T18:52:35.300Z,51.45
2022-10-22T18:55:02.382Z,52.08
2022-10-22T18:57:29.025Z,49.75
2022-10-22T18:59:58.581Z,54.45
2022-10-22T19:02:26.613Z,55.15
2022-10-22T19:04:53.303Z,66.00
2022-10-22T19:07:19.974Z,58.15
2022-10-22T19:09:46.668Z,48.38
2022-10-22T19:12:15.092Z,35.58
2022-10-22T19:14:42.835Z,44.85
2022-10-22T19:17:09.699Z,51.47
2022-10-22T19:19:36.437Z,50.65
2022-10-22T19:22:03.193Z,50.30
2022-10-22T19:24:30.398Z,88.15
2022-10-22T19:26:57.099Z,94.60
2022-10-22T19:29:23.801Z,86.03
2022-10-22T19:31:53.227Z,80.40
2022-10-22T19:34:20.668Z,76.53
2022-10-22T19:36:47.587Z,67.10
2022-10-22T19:39:17.786Z,51.67
2022-10-22T19:41:44.789Z,40.35
2022-10-22T19:44:11.566Z,29.00
2022-10-22T19:46:38.858Z,27.15
2022-10-22T19:49:05.603Z,32.78
2022-10-22T19:51:34.470Z,32.63
2022-10-22T19:54:04.241Z,45.78
2022-10-22T19:56:31.535Z,44.60
2022-10-22T19:58:58.945Z,37.58
2022-10-22T20:01:26.534Z,32.42
2022-10-22T20:03:53.702Z,34.10
2022-10-22T20:06:21.925Z,34.42
2022-10-22T20:08:52.351Z,51.75
2022-10-22T20:11:24.675Z,58.30
2022-10-22T20:13:52.564Z,61.50
2022-10-22T20:16:23.288Z,85.30
2022-10-22T20:18:50.962Z,74.13
2022-10-22T20:21:19.410Z,70.75
2022-10-22T20:23:47.168Z,54.58
2022-10-22T20:26:13.924Z,59.92
2022-10-22T20:28:40.665Z,45.40
2022-10-22T20:31:12.287Z,48.92
2022-10-22T20:33:39.298Z,48.42
2022-10-22T20:36:09.263Z,46.55
2022-10-22T20:41:11.867Z,51.63
2022-10-22T20:43:38.559Z,48.13
2022-10-22T20:46:05.422Z,42.58
2022-10-22T20:48:32.590Z,55.88
2022-10-22T20:51:00.158Z,45.85
2022-10-22T20:53:27.815Z,25.95
2022-10-22T20:55:57.738Z,35.60
2022-10-22T20:58:26.841Z,41.38
2022-10-22T21:00:55.276Z,32.45
2022-10-22T21:03:22.512Z,26.40
2022-10-22T21:05:49.859Z,21.60
2022-10-22T21:08:17.706Z,25.50
2022-10-22T21:10:49.271Z,31.13
2022-10-22T21:13:16.891Z,39.00
2022-10-22T21:15:43.638Z,30.23
2022-10-22T21:18:10.384Z,42.42
2022-10-22T21:20:39.746Z,36.65
2022-10-22T21:23:06.813Z,42.78
2022-10-22T21:25:33.785Z,41.90
2022-10-22T21:28:00.691Z,41.88
2022-10-22T21:30:27.668Z,41.80
2022-10-22T21:32:56.867Z,37.50
2022-10-22T21:35:24.038Z,38.65
2022-10-22T21:37:50.870Z,87.40
2022-10-22T21:40:19.237Z,39.05
2022-10-22T21:42:45.945Z,43.42
2022-10-22T21:45:15.615Z,46.55
2022-10-22T21:47:44.600Z,40.28
2022-10-22T21:50:11.536Z,62.75
2022-10-22T21:52:38.469Z,89.38
2022-10-22T21:55:05.603Z,83.88
2022-10-22T21:57:32.671Z,74.13
2022-10-22T21:59:59.666Z,62.97
2022-10-22T22:02:28.713Z,67.00
2022-10-22T22:04:55.561Z,60.90
2022-10-22T22:07:22.415Z,58.90
2022-10-22T22:09:50.222Z,50.72
2022-10-22T22:12:17.393Z,43.83
2022-10-22T22:14:44.466Z,42.50
2022-10-22T22:17:11.214Z,51.17
2022-10-22T22:19:41.137Z,45.00
2022-10-22T22:22:07.817Z,30.40
2022-10-22T22:24:34.584Z,37.60
2022-10-22T22:27:01.758Z,39.10
2022-10-22T22:29:28.362Z,34.88
2022-10-22T22:31:56.242Z,41.25
2022-10-22T22:34:22.893Z,37.50
2022-10-22T22:36:49.877Z,40.08
2022-10-22T22:39:19.458Z,38.70
2022-10-22T22:41:46.985Z,37.33
2022-10-22T22:44:13.703Z,37.75
2022-10-22T22:46:40.679Z,47.38
2022-10-22T22:49:08.143Z,41.53
2022-10-22T22:51:34.939Z,52.20
2022-10-22T22:54:02.277Z,39.35
2022-10-22T22:56:31.186Z,31.65
2022-10-22T22:58:58.433Z,39.55
2022-10-22T23:01:32.407Z,32.08
2022-10-22T23:04:02.077Z,45.15
2022-10-22T23:06:32.015Z,41.80
2022-10-22T23:08:59.534Z,35.55
2022-10-22T23:11:27.366Z,32.42
2022-10-22T23:14:03.293Z,38.03
2022-10-22T23:16:32.478Z,33.10
2022-10-22T23:19:00.454Z,28.70
2022-10-22T23:21:37.868Z,34.33
2022-10-22T23:24:11.224Z,52.08
2022-10-22T23:26:41.906Z,40.83
2022-10-22T23:29:12.597Z,25.63
2022-10-22T23:31:39.436Z,19.90
2022-10-22T23:34:07.538Z,19.10
2022-10-22T23:36:36.243Z,21.02
2022-10-22T23:39:05.318Z,24.20
2022-10-22T23:41:32.056Z,24.98
2022-10-22T23:43:58.961Z,21.75
2022-10-22T23:46:25.636Z,26.10
2022-10-22T23:48:53.851Z,30.83
2022-10-22T23:51:21.790Z,29.35
2022-10-22T23:53:55.562Z,32.30
2022-10-22T23:56:22.247Z,21.42
2022-10-22T23:58:53.448Z,16.48
